Atwood, Colorado
Current Conditions -  °F | °C
As of 1:30 AM on Sunday 21 Dec 2014 (Local Time) from KSTK Reporting Station
Broken Clouds Broken Clouds  
Wind Chill: 21°   Ceiling: 10000
Heat Index: 28°   Visibility: 10mi
Dew Point: 25°   Wind: 7mph
Humidity: 86%   Direction: 160°SSE
Pressure: 29.86"   Gusts: NA
Location:  40.55°N, 103.27°W
Report Text: KSTK 210830Z AUTO 16006KT 10SM BKN100 M02/M04 A2986 RMK AO2
Loading
Personal Weather Stations






























Interactive Weather Map New forecast layout! Learn more

10-Day Weather Forecast

Advertisements
Track Severe Weather on mobile